Time;durP1;ratioP1;P1;durP2;ratioP2;P2;SDS_P1;SDS_P2;PMS_P1;PMS_P2;Temp;Humidity;BMP_temperature;BMP_pressure;BME280_temperature;BME280_humidity;BME280_pressure;Samples;Min_cycle;Max_cycle;Signal;HPM_P1;HPM_P2
2022/03/22 00:01:26;;;;;;;29.00;15.30;;;;;;;7.39;58.41;101725.91;5019394;28;20056;-84
2022/03/22 00:03:52;;;;;;;26.45;15.30;;;;;;;7.36;58.86;101725.88;5020492;28;20052;-83
2022/03/22 00:06:18;;;;;;;24.23;14.93;;;;;;;7.36;58.43;101720.56;5042745;28;20029;-84
2022/03/22 00:08:44;;;;;;;24.23;14.98;;;;;;;7.31;58.73;101719.66;5029473;28;20041;-84
2022/03/22 00:11:09;;;;;;;25.52;15.15;;;;;;;7.28;58.82;101722.28;5046053;28;20030;-84
2022/03/22 00:13:34;;;;;;;24.05;14.98;;;;;;;7.25;59.02;101724.06;5042035;28;20022;-84
2022/03/22 00:16:04;;;;;;;23.70;13.80;;;;;;;7.23;58.74;101731.13;5024765;28;20027;-80
2022/03/22 00:18:32;;;;;;;23.77;15.45;;;;;;;7.19;58.86;101729.31;5034901;28;20092;-84
2022/03/22 00:20:57;;;;;;;28.83;15.18;;;;;;;7.17;59.25;101725.75;5042836;28;20085;-84
2022/03/22 00:23:23;;;;;;;26.33;16.15;;;;;;;7.14;59.72;101717.75;5059879;28;20025;-84
2022/03/22 00:25:49;;;;;;;24.48;14.93;;;;;;;7.12;59.13;101730.13;5043367;28;20014;-85
2022/03/22 00:28:14;;;;;;;26.65;14.43;;;;;;;7.09;59.89;101724.78;5042413;28;20097;-84
2022/03/22 00:30:40;;;;;;;28.05;15.23;;;;;;;7.06;60.06;101732.75;5059819;28;20026;-84
2022/03/22 00:33:06;;;;;;;23.88;14.82;;;;;;;6.99;60.89;101732.69;5042100;28;20112;-85
2022/03/22 00:35:37;;;;;;;28.33;16.25;;;;;;;6.95;61.05;101724.69;5059654;28;20029;-84
2022/03/22 00:38:06;;;;;;;25.38;15.15;;;;;;;6.91;61.36;101731.75;5059272;28;20017;-84
2022/03/22 00:40:31;;;;;;;27.05;16.33;;;;;;;6.87;61.95;101732.59;5042586;28;20005;-84
2022/03/22 00:43:00;;;;;;;29.48;16.63;;;;;;;6.86;61.21;101725.50;5059401;28;20008;-82
2022/03/22 00:45:28;;;;;;;28.15;16.58;;;;;;;6.85;61.66;101729.03;5041715;28;20001;-84
2022/03/22 00:47:55;;;;;;;30.70;16.63;;;;;;;6.83;61.37;101731.66;5041746;28;20025;-84
2022/03/22 00:50:23;;;;;;;29.15;16.90;;;;;;;6.79;61.94;101730.78;5059047;28;20021;-84
2022/03/22 00:52:49;;;;;;;28.35;16.45;;;;;;;6.77;61.89;101732.53;5042265;28;20028;-84
2022/03/22 00:55:15;;;;;;;26.45;16.02;;;;;;;6.74;62.46;101729.84;5041920;28;20010;-84
2022/03/22 00:57:42;;;;;;;31.20;16.52;;;;;;;6.69;62.02;101728.91;5041369;28;20124;-84
2022/03/22 01:00:13;;;;;;;24.73;16.02;;;;;;;6.68;61.94;101737.72;5057691;28;20025;-84
2022/03/22 01:02:43;;;;;;;28.08;16.98;;;;;;;6.63;61.47;101736.78;5050560;28;20092;-84
2022/03/22 01:05:14;;;;;;;26.70;15.80;;;;;;;6.65;61.54;101732.41;5049321;28;20491;-85
2022/03/22 01:07:41;;;;;;;26.63;15.82;;;;;;;6.62;61.49;101732.38;5048300;28;20032;-84
2022/03/22 01:10:09;;;;;;;26.00;15.93;;;;;;;6.69;61.10;101728.91;5048251;28;20025;-84
2022/03/22 01:12:35;;;;;;;27.45;16.08;;;;;;;6.61;61.61;101733.25;5030586;28;20493;-85
2022/03/22 01:15:04;;;;;;;26.13;15.85;;;;;;;6.59;61.59;101728.81;5047794;28;20099;-84
2022/03/22 01:17:31;;;;;;;25.05;16.38;;;;;;;6.59;61.81;101727.94;5029501;28;20068;-84
2022/03/22 01:20:00;;;;;;;28.50;16.27;;;;;;;6.53;62.27;101719.91;5046685;28;20489;-83
2022/03/22 01:22:26;;;;;;;26.58;16.17;;;;;;;6.47;62.65;101718.06;5047208;28;20034;-84
2022/03/22 01:24:52;;;;;;;28.08;16.02;;;;;;;6.41;62.96;101718.00;5030854;28;20028;-84
2022/03/22 01:27:20;;;;;;;28.40;16.65;;;;;;;6.37;62.68;101723.28;5047443;28;20029;-85
2022/03/22 01:29:45;;;;;;;26.02;16.38;;;;;;;6.35;63.20;101722.38;5028869;28;20030;-84
2022/03/22 01:32:11;;;;;;;26.23;16.33;;;;;;;6.31;63.45;101720.59;5029220;28;20033;-83
2022/03/22 01:34:39;;;;;;;26.55;15.88;;;;;;;6.32;63.30;101719.69;5047078;28;20104;-84
2022/03/22 01:37:05;;;;;;;28.40;17.40;;;;;;;6.26;63.93;101709.03;5024077;28;20030;-82
2022/03/22 01:39:30;;;;;;;26.15;16.50;;;;;;;6.21;64.11;101714.25;5038339;28;20052;-84
2022/03/22 01:41:58;;;;;;;28.52;16.15;;;;;;;6.24;63.77;101718.69;5028540;28;20022;-84
2022/03/22 01:44:25;;;;;;;27.35;16.75;;;;;;;6.22;63.89;101707.19;5045974;28;20052;-84
2022/03/22 01:46:54;;;;;;;26.30;16.67;;;;;;;6.19;63.72;101707.16;5046578;28;20478;-84
2022/03/22 01:49:19;;;;;;;29.90;16.95;;;;;;;6.20;63.44;101709.84;5028294;28;20052;-84
2022/03/22 01:51:48;;;;;;;27.17;16.85;;;;;;;6.21;62.85;101705.44;5028157;28;20069;-84
2022/03/22 01:54:15;;;;;;;29.45;16.17;;;;;;;6.23;62.63;101709.88;5028742;28;20033;-84
2022/03/22 01:56:40;;;;;;;26.40;15.95;;;;;;;6.26;62.34;101709.88;5045534;28;20478;-84
2022/03/22 01:59:09;;;;;;;26.20;15.18;;;;;;;6.24;61.97;101705.44;5027924;28;20053;-84
2022/03/22 02:07:06;;;;;;;26.50;15.65;;;;;;;6.26;61.06;101699.28;5045698;28;20044;-84
2022/03/22 02:09:32;;;;;;;23.83;14.88;;;;;;;6.28;61.38;101695.78;5045260;28;20045;-84
2022/03/22 02:11:57;;;;;;;27.73;15.80;;;;;;;6.26;61.35;101704.59;5027779;28;20025;-82
2022/03/22 02:14:23;;;;;;;28.88;15.13;;;;;;;6.23;61.65;101703.69;5036507;28;20025;-83
2022/03/22 02:16:48;;;;;;;24.60;15.38;;;;;;;6.20;61.59;101708.94;5038764;28;20029;-84
2022/03/22 02:19:15;;;;;;;26.58;15.05;;;;;;;6.12;62.17;101701.78;5027148;28;20026;-84
2022/03/22 02:21:41;;;;;;;27.30;14.95;;;;;;;6.13;61.25;101714.16;5045748;28;20033;-84
2022/03/22 02:24:07;;;;;;;25.42;15.98;;;;;;;6.12;61.52;101706.19;5027850;28;20548;-83
2022/03/22 02:26:32;;;;;;;22.55;14.70;;;;;;;6.05;61.72;101699.91;5046083;28;20029;-84
2022/03/22 02:29:01;;;;;;;23.75;14.73;;;;;;;6.01;61.68;101701.63;5027846;28;20051;-84
2022/03/22 02:31:27;;;;;;;27.92;15.73;;;;;;;5.97;61.93;101696.28;5027686;28;20517;-83
2022/03/22 02:33:54;;;;;;;26.02;15.48;;;;;;;5.95;62.13;101700.69;5027696;28;20025;-84
2022/03/22 02:36:22;;;;;;;22.90;15.18;;;;;;;5.93;61.94;101712.13;5026806;28;20104;-84
2022/03/22 02:38:48;;;;;;;24.83;14.73;;;;;;;5.91;62.15;101708.59;5067151;22;20119;-74
2022/03/22 02:41:16;;;;;;;27.23;15.82;;;;;;;5.92;61.88;101704.19;5033816;28;20036;-75
2022/03/22 02:43:42;;;;;;;23.40;15.50;;;;;;;5.94;62.09;101705.09;5016063;28;20482;-75
2022/03/22 02:46:07;;;;;;;25.70;15.55;;;;;;;5.95;62.99;101708.63;5033728;28;20036;-75
2022/03/22 02:48:34;;;;;;;26.23;16.38;;;;;;;5.87;63.56;101706.78;5016090;28;20021;-74
2022/03/22 02:51:00;;;;;;;27.08;16.17;;;;;;;5.81;64.27;101704.03;5033983;28;20025;-74
2022/03/22 02:53:25;;;;;;;26.65;17.88;;;;;;;5.78;65.46;101706.63;5033515;28;20021;-74
2022/03/22 02:55:50;;;;;;;25.42;16.70;;;;;;;5.75;65.48;101706.59;5033636;28;20041;-75
2022/03/22 02:58:16;;;;;;;32.40;18.25;;;;;;;5.70;65.39;101706.53;5033590;28;20033;-75
2022/03/22 03:00:41;;;;;;;29.15;17.77;;;;;;;5.67;66.70;101710.03;5033500;28;20461;-75
2022/03/22 03:03:06;;;;;;;27.35;17.75;;;;;;;5.63;67.28;101707.34;5033689;28;20067;-75
2022/03/22 03:05:32;;;;;;;31.27;18.75;;;;;;;5.57;68.48;101708.13;5033774;28;20021;-75
2022/03/22 03:07:58;;;;;;;30.85;18.00;;;;;;;5.41;69.68;101707.03;5033624;28;20414;-75
2022/03/22 03:10:24;;;;;;;28.98;18.70;;;;;;;5.39;70.44;101706.09;5033404;28;20022;-75
2022/03/22 03:13:00;;;;;;;31.60;19.25;;;;;;;5.32;70.72;101715.72;5033599;28;20030;-75
2022/03/22 03:15:25;;;;;;;28.70;18.70;;;;;;;5.30;71.02;101713.06;5034011;28;20029;-75
2022/03/22 03:17:51;;;;;;;30.95;18.40;;;;;;;5.26;71.63;101708.56;5015595;28;20025;-75
2022/03/22 03:20:16;;;;;;;30.08;18.65;;;;;;;5.24;71.40;101719.16;5033508;28;20108;-75
2022/03/22 03:22:41;;;;;;;31.33;18.58;;;;;;;5.19;72.25;101710.25;5033185;28;20017;-75
2022/03/22 03:25:08;;;;;;;30.65;18.48;;;;;;;5.16;72.19;101715.50;5033145;28;20024;-75
2022/03/22 03:27:33;;;;;;;36.28;19.13;;;;;;;5.10;73.68;101718.06;5033083;28;20048;-75
2022/03/22 03:29:59;;;;;;;31.42;19.90;;;;;;;5.02;73.93;101715.28;5015500;28;20479;-74
2022/03/22 03:32:24;;;;;;;30.42;19.42;;;;;;;4.96;74.03;101725.75;5032969;28;20454;-75
2022/03/22 03:34:50;;;;;;;33.13;20.27;;;;;;;4.89;74.72;101717.75;5033034;28;20108;-75
2022/03/22 03:37:16;;;;;;;30.15;19.27;;;;;;;4.87;75.23;101718.56;5015346;28;20028;-75
2022/03/22 03:39:43;;;;;;;31.67;19.27;;;;;;;4.87;75.25;101729.16;5033001;28;20044;-75
2022/03/22 03:42:09;;;;;;;32.50;20.38;;;;;;;4.85;75.17;101722.94;5033018;28;20482;-74
2022/03/22 03:47:24;;;;;;;32.40;20.02;;;;;;;4.69;77.23;101714.75;5033574;28;20036;-75
2022/03/22 03:49:52;;;;;;;33.38;20.95;;;;;;;4.67;78.03;101722.66;5032986;28;20052;-75
2022/03/22 03:52:22;;;;;;;30.23;19.67;;;;;;;4.65;77.56;101726.13;5036972;28;20391;-75
2022/03/22 03:54:49;;;;;;;34.55;20.27;;;;;;;4.61;78.08;101721.66;5036983;28;20049;-75
2022/03/22 03:57:14;;;;;;;32.60;20.80;;;;;;;4.58;77.89;101720.75;5036932;28;20040;-75
2022/03/22 03:59:40;;;;;;;35.05;21.50;;;;;;;4.57;78.53;101726.88;5037069;28;20445;-75
2022/03/22 04:02:06;;;;;;;35.70;20.88;;;;;;;4.55;78.95;101728.63;5019052;28;20538;-75
2022/03/22 04:04:35;;;;;;;32.22;20.20;;;;;;;4.51;78.71;101724.13;5036775;28;20505;-75
2022/03/22 04:07:01;;;;;;;33.83;19.90;;;;;;;4.51;79.77;101726.75;5036872;28;20079;-75
2022/03/22 04:09:26;;;;;;;32.63;20.80;;;;;;;4.44;80.21;101724.88;5036699;28;20029;-74
2022/03/22 04:11:51;;;;;;;33.05;20.17;;;;;;;4.43;80.39;101731.91;5036567;28;20107;-75
2022/03/22 04:14:17;;;;;;;36.00;21.63;;;;;;;4.42;80.61;101726.59;5018849;28;20026;-75
2022/03/22 04:16:42;;;;;;;35.28;20.83;;;;;;;4.38;80.06;101732.69;5037054;28;20079;-75
2022/03/22 04:19:08;;;;;;;30.80;20.02;;;;;;;4.35;80.58;101722.97;5018755;28;20024;-75
2022/03/22 04:21:34;;;;;;;33.75;20.95;;;;;;;4.29;80.70;101723.72;5036543;28;20433;-75
2022/03/22 04:24:08;;;;;;;32.88;21.02;;;;;;;4.27;80.17;101717.53;5036345;28;20029;-75
2022/03/22 04:26:35;;;;;;;32.50;20.58;;;;;;;4.27;80.21;101725.44;5036487;28;20026;-75
2022/03/22 04:34:28;;;;;;;33.90;19.48;;;;;;;4.29;79.88;101725.47;5036296;28;20029;-75
2022/03/22 04:36:57;;;;;;;32.47;20.17;;;;;;;4.27;79.23;101725.44;5036433;28;20021;-75
2022/03/22 04:39:26;;;;;;;32.90;20.00;;;;;;;4.24;79.44;101726.28;5036002;28;20151;-76
2022/03/22 04:41:52;;;;;;;33.58;19.77;;;;;;;4.23;79.07;101726.22;5018421;28;20028;-74
2022/03/22 04:44:18;;;;;;;34.33;20.73;;;;;;;4.20;79.08;101742.06;5018287;28;20029;-75
2022/03/22 04:46:44;;;;;;;31.77;18.95;;;;;;;4.18;79.27;101736.72;5036027;28;20379;-76
2022/03/22 04:49:09;;;;;;;31.65;19.55;;;;;;;4.18;79.27;101735.81;5018250;28;20053;-75
2022/03/22 04:57:02;;;;;;;32.55;18.63;;;;;;;4.21;78.79;101741.19;5035916;28;20457;-74
2022/03/22 04:59:28;;;;;;;30.98;19.63;;;;;;;4.19;78.95;101735.88;5035776;28;20022;-74
2022/03/22 05:01:54;;;;;;;33.28;20.02;;;;;;;4.11;79.56;101735.72;5035323;28;20048;-74
2022/03/22 05:04:19;;;;;;;32.10;19.60;;;;;;;4.10;79.28;101746.25;5017926;28;20044;-75
2022/03/22 05:06:45;;;;;;;31.48;19.88;;;;;;;4.04;79.35;101740.84;5018143;28;20505;-75
2022/03/22 05:09:11;;;;;;;35.33;19.75;;;;;;;4.02;79.63;101740.81;5035653;28;20490;-75
2022/03/22 05:11:37;;;;;;;36.08;19.75;;;;;;;4.01;79.93;101745.22;5035466;28;20083;-75
2022/03/22 05:14:03;;;;;;;35.20;20.40;;;;;;;3.99;80.33;101746.03;5035872;28;20030;-74
2022/03/22 05:16:31;;;;;;;32.72;19.17;;;;;;;3.97;80.60;101746.00;5035398;28;20100;-75
2022/03/22 05:18:57;;;;;;;32.33;19.70;;;;;;;3.91;80.57;101744.13;5035828;28;20027;-75
2022/03/22 05:21:26;;;;;;;33.22;20.92;;;;;;;3.88;81.58;101751.09;5035420;28;20018;-75
2022/03/22 05:23:53;;;;;;;31.35;19.52;;;;;;;3.85;81.14;101754.56;5017510;28;20513;-74
2022/03/22 05:26:18;;;;;;;33.30;20.02;;;;;;;3.82;81.65;101754.50;5035266;28;20029;-74
2022/03/22 05:28:44;;;;;;;34.85;20.45;;;;;;;3.79;81.36;101760.59;5035227;28;20026;-75
2022/03/22 05:31:10;;;;;;;30.75;19.10;;;;;;;3.78;81.35;101755.28;5017387;28;20029;-74
2022/03/22 05:33:36;;;;;;;32.53;19.85;;;;;;;3.75;81.84;101752.56;5034972;28;20499;-74
2022/03/22 05:36:03;;;;;;;34.80;20.45;;;;;;;3.74;81.82;101753.41;5035093;28;20029;-74
2022/03/22 05:38:28;;;;;;;33.78;19.98;;;;;;;3.74;82.19;101766.63;5035200;28;20030;-75
2022/03/22 05:40:54;;;;;;;36.88;21.00;;;;;;;3.73;82.05;101759.56;5035344;28;20032;-75
2022/03/22 05:43:20;;;;;;;36.10;20.00;;;;;;;3.76;81.73;101762.28;5035112;28;20028;-75
2022/03/22 05:45:48;;;;;;;36.80;21.25;;;;;;;3.75;82.08;101752.56;5035046;28;20135;-74
2022/03/22 05:48:15;;;;;;;34.08;20.95;;;;;;;3.72;82.41;101763.97;5035150;28;20095;-74
2022/03/22 05:50:40;;;;;;;33.47;20.48;;;;;;;3.73;81.99;101764.88;5035145;28;20029;-74
2022/03/22 05:53:05;;;;;;;34.95;21.25;;;;;;;3.69;82.44;101770.06;5034589;28;20035;-74
2022/03/22 05:55:31;;;;;;;30.35;19.80;;;;;;;3.72;83.03;101768.34;5034828;28;20026;-75
2022/03/22 05:57:56;;;;;;;32.60;20.85;;;;;;;3.73;82.48;101776.31;5034672;28;20112;-75
2022/03/22 06:00:21;;;;;;;32.35;20.80;;;;;;;3.73;82.41;101764.88;5034946;28;20105;-75
2022/03/22 06:02:47;;;;;;;35.80;20.25;;;;;;;3.74;82.23;101766.63;5034666;28;20072;-74
2022/03/22 06:05:13;;;;;;;34.38;20.85;;;;;;;3.72;82.40;101773.63;5016858;28;20398;-74
2022/03/22 06:07:40;;;;;;;35.30;21.15;;;;;;;3.70;82.96;101781.53;5016908;28;20140;-74
2022/03/22 06:10:06;;;;;;;35.00;20.95;;;;;;;3.61;83.63;101771.63;5034414;28;20091;-75
2022/03/22 06:12:40;;;;;;;34.33;20.80;;;;;;;3.66;84.08;101780.56;5034219;28;20033;-75
2022/03/22 06:15:17;;;;;;;33.30;19.83;;;;;;;3.67;83.25;101779.72;5034061;28;20027;-74
2022/03/22 06:17:50;;;;;;;34.97;20.83;;;;;;;3.70;84.42;101786.81;5034592;28;20037;-74
2022/03/22 06:20:16;;;;;;;;;;;;;;;3.76;83.59;101788.72;5016788;28;20491;-74
2022/03/22 06:22:42;;;;;;;32.10;19.58;;;;;;;3.68;84.33;101784.16;5034163;28;19920;-74
2022/03/22 06:25:08;;;;;;;33.80;20.35;;;;;;;3.71;83.77;101787.72;5033971;28;20032;-75
2022/03/22 06:27:35;;;;;;;33.63;20.33;;;;;;;3.75;84.25;101789.56;5016311;28;20021;-74
2022/03/22 06:30:03;;;;;;;34.05;20.23;;;;;;;3.76;84.42;101799.28;5034110;28;20040;-75
2022/03/22 06:32:29;;;;;;;35.53;20.92;;;;;;;3.75;83.68;101794.84;5016846;28;20029;-74
2022/03/22 06:34:54;;;;;;;33.58;20.10;;;;;;;3.71;83.99;101800.94;5016259;28;20025;-74
2022/03/22 06:37:19;;;;;;;36.70;20.65;;;;;;;3.76;84.23;101801.94;5016231;28;20387;-75
2022/03/22 06:39:45;;;;;;;35.22;21.02;;;;;;;3.75;85.00;101805.41;5033808;28;20053;-74
2022/03/22 06:42:11;;;;;;;36.72;20.65;;;;;;;3.77;84.35;101804.59;5034104;28;20059;-75
2022/03/22 06:44:37;;;;;;;36.60;20.42;;;;;;;3.73;84.60;101805.41;5033649;28;20072;-75
2022/03/22 06:47:04;;;;;;;33.53;20.42;;;;;;;3.72;85.06;101800.06;5033765;28;20033;-74
2022/03/22 06:49:30;;;;;;;34.10;20.70;;;;;;;3.76;85.01;101807.22;5033725;28;20445;-74
2022/03/22 06:51:56;;;;;;;34.55;20.92;;;;;;;3.76;85.23;101815.13;5033588;28;20474;-74
2022/03/22 06:54:22;;;;;;;31.98;21.10;;;;;;;3.72;84.45;101810.63;5033563;28;20064;-74
2022/03/22 06:56:47;;;;;;;38.88;21.55;;;;;;;3.75;84.77;101813.34;5033642;28;20021;-74
2022/03/22 06:59:12;;;;;;;36.30;21.90;;;;;;;3.77;85.61;101806.34;5033536;28;20075;-74
2022/03/22 07:01:38;;;;;;;33.63;21.35;;;;;;;3.89;85.19;101819.81;5033517;28;20039;-74
2022/03/22 07:04:03;;;;;;;31.23;20.40;;;;;;;4.05;85.46;101817.53;5033679;28;20375;-74
2022/03/22 07:06:29;;;;;;;34.88;21.67;;;;;;;4.16;85.19;101809.84;5033711;28;20478;-74
2022/03/22 07:08:55;;;;;;;35.42;20.25;;;;;;;4.21;84.35;101815.22;5033439;28;20055;-74
2022/03/22 07:14:04;;;;;;;33.65;20.45;;;;;;;4.40;85.02;101820.91;5033372;28;20037;-74
2022/03/22 07:16:29;;;;;;;36.15;21.25;;;;;;;4.43;85.06;101815.69;5033662;28;20057;-74
2022/03/22 07:18:54;;;;;;;30.67;20.30;;;;;;;4.50;85.08;101814.94;5033337;28;20032;-74
2022/03/22 07:21:19;;;;;;;33.42;20.77;;;;;;;4.64;85.04;101819.63;5033766;28;20030;-74
2022/03/22 07:23:45;;;;;;;35.88;20.85;;;;;;;4.76;85.11;101817.19;5033273;28;20470;-74
2022/03/22 07:26:10;;;;;;;33.42;20.83;;;;;;;4.87;83.03;101827.97;5015400;28;20017;-74
2022/03/22 07:28:35;;;;;;;35.67;21.10;;;;;;;4.97;81.48;101828.16;5033167;28;20053;-74
2022/03/22 07:31:01;;;;;;;35.42;20.33;;;;;;;5.03;80.64;101831.81;5033700;28;20021;-74
2022/03/22 07:33:27;;;;;;;32.20;20.77;;;;;;;5.13;80.37;101831.94;5032998;28;20025;-74
2022/03/22 07:35:52;;;;;;;34.67;21.30;;;;;;;5.27;81.77;101833.97;5033067;28;20442;-74
2022/03/22 07:38:17;;;;;;;30.85;20.38;;;;;;;5.35;82.11;101833.25;5032989;28;20156;-74
2022/03/22 07:40:43;;;;;;;36.70;21.23;;;;;;;5.39;81.50;101830.63;5033356;28;20029;-74
2022/03/22 07:43:08;;;;;;;33.35;21.05;;;;;;;5.54;81.19;101835.31;5032888;28;20391;-75
2022/03/22 07:45:33;;;;;;;32.50;21.35;;;;;;;5.67;80.95;101831.09;5015320;28;20027;-74
2022/03/22 07:47:59;;;;;;;36.35;21.00;;;;;;;5.81;80.24;101832.19;5033433;28;20030;-75
2022/03/22 07:53:08;;;;;;;34.83;21.55;;;;;;;5.99;80.66;101838.63;5032920;28;20536;-74
2022/03/22 07:55:36;;;;;;;36.90;21.23;;;;;;;5.98;79.62;101842.13;5032859;28;20025;-74
2022/03/22 07:58:03;;;;;;;34.58;21.33;;;;;;;6.07;79.77;101840.47;5032867;28;20052;-74
2022/03/22 08:00:30;;;;;;;33.08;20.67;;;;;;;6.14;78.86;101845.03;5015077;28;20021;-74
2022/03/22 08:03:03;;;;;;;32.65;20.85;;;;;;;6.26;78.87;101839.88;5015186;28;20034;-74
2022/03/22 08:05:30;;;;;;;32.72;20.55;;;;;;;6.40;77.85;101838.28;5015237;28;20033;-74
2022/03/22 08:07:55;;;;;;;32.90;19.90;;;;;;;6.51;77.75;101841.97;5032773;28;20482;-74
2022/03/22 08:10:22;;;;;;;34.13;20.17;;;;;;;6.64;76.64;101842.09;5032770;28;20083;-74
2022/03/22 08:12:48;;;;;;;34.72;20.23;;;;;;;6.72;76.12;101845.75;5032680;28;20022;-74
2022/03/22 08:15:14;;;;;;;35.45;20.23;;;;;;;6.76;76.11;101842.25;5032930;28;20029;-74
2022/03/22 08:17:39;;;;;;;30.27;19.63;;;;;;;6.91;76.36;101841.50;5032682;28;20470;-74
2022/03/22 08:20:06;;;;;;;33.97;21.45;;;;;;;7.03;75.18;101835.47;5032748;28;20021;-75
2022/03/22 08:22:33;;;;;;;31.23;18.98;;;;;;;7.20;74.56;101842.69;5032695;28;20029;-74
2022/03/22 08:24:58;;;;;;;35.67;19.40;;;;;;;7.29;73.63;101836.56;5032624;28;20028;-74
2022/03/22 08:27:23;;;;;;;33.15;19.30;;;;;;;7.38;72.78;101835.75;5032766;28;20100;-74
2022/03/22 08:29:51;;;;;;;35.10;20.15;;;;;;;7.54;71.76;101833.22;5032587;28;20067;-75
2022/03/22 08:32:16;;;;;;;29.10;19.20;;;;;;;7.58;69.54;101835.00;5032433;28;20470;-74
2022/03/22 08:34:42;;;;;;;31.23;19.08;;;;;;;7.71;71.24;101828.91;5032734;28;20025;-74
2022/03/22 08:37:07;;;;;;;30.45;19.15;;;;;;;7.84;71.33;101828.97;5016721;28;20025;-74
2022/03/22 08:39:35;;;;;;;28.88;19.20;;;;;;;8.02;68.97;101837.94;5082763;22;20041;-81
2022/03/22 08:42:00;;;;;;;31.02;19.85;;;;;;;8.16;69.25;101836.28;5039478;28;20021;-81
2022/03/22 08:44:28;;;;;;;33.97;19.25;;;;;;;8.26;68.68;101828.31;5038495;28;20385;-81
2022/03/22 08:47:01;;;;;;;31.10;19.58;;;;;;;8.44;68.77;101826.63;5036843;28;20406;-81
2022/03/22 08:49:38;;;;;;;29.25;19.73;;;;;;;8.53;69.18;101831.97;5037865;28;20021;-81
2022/03/22 08:52:42;;;;;;;;;;;;;;;;;;;;;
2022/03/22 08:55:14;;;;;;;32.15;19.05;;;;;;;9.00;67.17;101824.13;5036272;28;20046;-81
2022/03/22 08:57:50;;;;;;;32.50;19.52;;;;;;;8.95;65.66;101823.22;5020436;28;20029;-80
2022/03/22 09:00:22;;;;;;;29.98;18.10;;;;;;;9.16;64.03;101824.16;5020264;28;20030;-81
2022/03/22 09:02:52;;;;;;;28.40;18.73;;;;;;;9.32;64.54;101825.03;5020376;28;20549;-81
2022/03/22 09:08:16;;;;;;;30.05;18.75;;;;;;;9.79;61.82;101829.44;5037880;28;20028;-81
2022/03/22 09:10:49;;;;;;;29.00;18.75;;;;;;;10.04;62.34;101827.59;5020724;28;20029;-82
2022/03/22 09:13:18;;;;;;;31.95;18.98;;;;;;;10.32;61.44;101820.38;5038310;28;20080;-81
2022/03/22 09:15:54;;;;;;;31.02;19.17;;;;;;;10.52;61.93;101828.31;5037677;28;20082;-82
2022/03/22 09:18:36;;;;;;;28.70;18.13;;;;;;;10.68;61.22;101825.56;5020193;28;20032;-81
2022/03/22 09:21:26;;;;;;;30.25;19.55;;;;;;;10.80;59.72;101824.59;5019806;28;20032;-81
2022/03/22 09:24:05;;;;;;;28.40;18.67;;;;;;;11.22;60.62;101821.66;5015251;28;20061;-81
2022/03/22 09:26:40;;;;;;;27.25;17.88;;;;;;;11.65;58.61;101819.47;5018681;28;20084;-81
2022/03/22 09:29:19;;;;;;;;;;;;;;;;;;;;;
2022/03/22 09:32:16;;;;;;;26.10;17.48;;;;;;;12.05;55.60;101817.28;5037693;28;20025;-82
2022/03/22 09:34:50;;;;;;;29.83;17.70;;;;;;;12.07;57.88;101813.69;5019918;28;20083;-81
2022/03/22 09:37:30;;;;;;;28.67;17.92;;;;;;;12.52;55.32;101820.28;5038704;28;20474;-81
2022/03/22 09:39:58;;;;;;;29.30;17.65;;;;;;;12.27;53.28;101817.06;5037737;28;20378;-81
2022/03/22 09:42:30;;;;;;;28.10;17.80;;;;;;;12.32;52.72;101815.19;5037787;28;20025;-82
2022/03/22 09:47:51;;;;;;;32.60;18.08;;;;;;;12.90;51.78;101816.22;5036754;28;20095;-81
2022/03/22 09:51:44;;;;;;;30.95;18.33;;;;;;;12.93;51.94;101822.41;5037624;28;20498;-81
2022/03/22 09:53:18;;;;;;;29.52;18.42;;;;;;;13.10;51.66;101817.69;5037290;28;20060;-81
2022/03/22 09:56:07;;;;;;;28.35;18.13;;;;;;;13.34;50.70;101818.19;5037293;28;20462;-81
2022/03/22 09:58:38;;;;;;;31.10;18.08;;;;;;;13.56;50.22;101809.75;5018444;28;20064;-82
2022/03/22 10:01:08;;;;;;;29.17;17.08;;;;;;;13.61;50.12;101811.47;5019245;28;20071;-81
2022/03/22 10:03:38;;;;;;;26.05;17.38;;;;;;;14.00;50.81;101814.34;5036477;28;20041;-82
2022/03/22 10:06:09;;;;;;;27.50;17.48;;;;;;;14.26;48.37;101816.50;5019781;28;20044;-82
2022/03/22 10:09:05;;;;;;;27.08;17.15;;;;;;;13.80;48.66;101813.81;5019305;28;20022;-81
2022/03/22 10:11:48;;;;;;;27.50;18.30;;;;;;;14.34;47.96;101813.66;5019622;28;20025;-81
2022/03/22 10:14:16;;;;;;;30.98;18.15;;;;;;;14.30;45.82;101815.50;5019804;28;20044;-82
2022/03/22 10:16:52;;;;;;;25.63;17.58;;;;;;;15.03;46.01;101814.81;5019320;28;20028;-81
2022/03/22 10:19:25;;;;;;;28.85;17.67;;;;;;;15.42;45.28;101812.97;5037317;28;20040;-80
2022/03/22 10:22:05;;;;;;;28.15;16.98;;;;;;;15.45;44.43;101806.63;5037218;28;20021;-82
2022/03/22 10:24:44;;;;;;;28.95;16.95;;;;;;;15.81;42.75;101806.53;5019921;28;20401;-82
2022/03/22 10:27:28;;;;;;;29.90;16.90;;;;;;;15.94;42.49;101809.78;5022318;28;20542;-83
2022/03/22 10:30:09;;;;;;;27.58;16.52;;;;;;;15.67;43.43;101797.97;5039957;28;20479;-82
2022/03/22 10:32:40;;;;;;;29.33;17.38;;;;;;;16.25;43.42;101801.75;5034591;28;20037;-81
2022/03/22 10:35:39;;;;;;;27.52;17.45;;;;;;;15.84;42.52;101805.56;5017790;28;20106;-81
2022/03/22 10:38:25;;;;;;;26.27;16.30;;;;;;;16.09;42.56;101802.22;5024322;28;20037;-82
2022/03/22 10:40:51;;;;;;;24.85;15.60;;;;;;;16.35;40.83;101803.25;5036243;28;20021;-82
2022/03/22 10:43:31;;;;;;;27.77;16.33;;;;;;;16.55;39.78;101799.03;5020299;28;20025;-82
2022/03/22 10:46:04;;;;;;;26.48;16.73;;;;;;;16.67;39.14;101795.09;5038402;28;20090;-82
2022/03/22 10:48:40;;;;;;;26.83;16.38;;;;;;;16.85;37.55;101801.69;5019753;28;20482;-82
2022/03/22 10:51:18;;;;;;;;;;;;;;;;;;;;;
2022/03/22 10:54:19;;;;;;;24.45;16.10;;;;;;;16.98;38.36;101799.47;5037431;28;20543;-82
2022/03/22 10:56:52;;;;;;;26.15;16.25;;;;;;;17.18;37.86;101800.69;5034822;28;20039;-82
2022/03/22 10:59:23;;;;;;;31.58;15.80;;;;;;;16.84;37.18;101797.25;5036280;28;20109;-80
2022/03/22 11:01:56;;;;;;;27.45;16.42;;;;;;;17.74;37.12;101797.84;5018196;28;20076;-81
2022/03/22 11:04:27;;;;;;;24.55;14.88;;;;;;;17.70;35.92;101792.63;5036593;28;20026;-82
2022/03/22 11:06:54;;;;;;;26.70;16.55;;;;;;;17.45;35.25;101794.34;5017168;28;20040;-82
2022/03/22 11:09:25;;;;;;;27.15;16.25;;;;;;;17.81;33.89;101789.50;5016637;28;20027;-80
2022/03/22 11:12:22;;;;;;;24.58;15.40;;;;;;;17.93;33.51;101799.88;5034994;28;20031;-82
2022/03/22 11:15:02;;;;;;;29.27;15.70;;;;;;;18.20;33.47;101791.69;5016846;28;20033;-82
2022/03/22 11:17:35;;;;;;;25.35;16.00;;;;;;;18.17;33.75;101789.06;5035941;28;20029;-82
2022/03/22 11:20:13;;;;;;;24.58;15.63;;;;;;;17.74;34.67;101784.34;5036505;28;20022;-82
2022/03/22 11:23:00;;;;;;;26.27;16.08;;;;;;;17.29;34.72;101786.78;5034992;28;20030;-82
2022/03/22 11:25:37;;;;;;;25.08;16.27;;;;;;;18.28;34.50;101783.28;5019590;28;20022;-82
2022/03/22 11:28:25;;;;;;;28.67;16.63;;;;;;;17.74;35.21;101776.25;5036052;28;20030;-82
2022/03/22 11:31:01;;;;;;;25.73;16.60;;;;;;;17.62;33.88;101782.97;5019080;28;20382;-81
2022/03/22 11:36:28;;;;;;;25.98;15.48;;;;;;;17.60;36.09;101774.03;5037472;28;20390;-81
2022/03/22 11:39:06;;;;;;;26.05;15.77;;;;;;;17.68;34.17;101776.44;5018733;28;20076;-81
2022/03/22 11:45:05;;;;;;;26.55;16.38;;;;;;;18.52;35.26;101766.16;5030904;28;20103;-82
2022/03/22 11:47:43;;;;;;;23.93;14.67;;;;;;;18.46;33.08;101763.69;5035007;28;20080;-82
2022/03/22 11:50:20;;;;;;;24.10;15.07;;;;;;;18.77;31.79;101757.03;5017982;28;20285;-82
2022/03/22 11:52:58;;;;;;;23.80;13.77;;;;;;;18.29;31.65;101758.03;5036818;28;20374;-82
2022/03/22 11:55:30;;;;;;;25.30;14.35;;;;;;;19.02;33.66;101756.00;5036957;28;20030;-82
2022/03/22 11:58:31;;;;;;;;;;;;;;;;;;;;;
2022/03/22 12:01:20;;;;;;;30.45;15.10;;;;;;;18.63;31.83;101761.16;5036648;28;20108;-80
2022/03/22 12:03:56;;;;;;;27.67;14.90;;;;;;;18.64;31.77;101756.66;5018205;28;20373;-82
2022/03/22 12:06:34;;;;;;;24.83;14.73;;;;;;;19.12;32.84;101744.78;5038165;28;20037;-82
2022/03/22 12:09:34;;;;;;;25.45;14.73;;;;;;;18.65;31.58;101743.09;5018173;28;20033;-82